Portada
METAR-TAF:

METAR-TAF

Aeropuertos :

Aeropuerto de Turín-Caselle

Turín, Italia

latitud: 45-13N, longitud: 007-39E, altitud: 301 m

Observación

El informe se hizo hace 11 minutos, a las 12:50 UTC
Viento 3 kt con dirección variable
Temperatura 17°C
Humedad 39%
Presión 1020 hPa
Visibilidad: 8000 m

METAR: LIMF 041250Z VRB03KT 8000 NSC 17/03 Q1020

Hora: 15:01 (13:01 UTC)

Pronóstico

El informe se hizo hace 2 horas y 1 minutos, a las 11:00 UTC
Pronóstico válido del 04 a las 12 UTC al 05 a las 12 UTC
Viento 5 kt con dirección variable
Visibilidad 10 km o más
sin nubes por debajo de 1500 m y sin presencia de cumulonimbus.

TAF: LIMF 041100Z 0412/0512 VRB05KT CAVOK

Observaciones y pronósticos meteorológicos de más de 4000 aeropuertos (mensajes METAR y TAF).

Los puntos amarillos y rojos representan las estaciones disponibles.

Ponga el ratón en el punto deseado para ver el nombre de la estación.

Haga clic para ver las observaciones y los pronósticos meteorológicos.

Para cambiar el mapa : haga clic en los botones verdes con una cruz de color negro para hacer un zoom, en el botón verde con un guión para alejar o en las flechas verdes para mapas adyacentes.


METAR-TAF: